sensor_id;sensor_type;location;lat;lon;timestamp;pressure;altitude;pressure_sealevel;temperature;humidity
4392;BME280;2210;51.938;8.488;2022-08-21T00:03:32;100612.72;;;16.83;100.00
4392;BME280;2210;51.938;8.488;2022-08-21T00:07:32;100610.47;;;16.70;100.00
4392;BME280;2210;51.938;8.488;2022-08-21T00:11:34;100609.34;;;16.66;100.00
4392;BME280;2210;51.938;8.488;2022-08-21T00:15:36;100609.88;;;16.63;100.00
4392;BME280;2210;51.938;8.488;2022-08-21T00:19:37;100602.66;;;16.62;100.00
4392;BME280;2210;51.938;8.488;2022-08-21T00:23:38;100604.91;;;16.70;100.00
4392;BME280;2210;51.938;8.488;2022-08-21T00:27:38;100605.19;;;16.68;100.00
4392;BME280;2210;51.938;8.488;2022-08-21T00:31:40;100604.06;;;16.64;100.00
4392;BME280;2210;51.938;8.488;2022-08-21T00:35:41;100602.09;;;16.60;100.00
4392;BME280;2210;51.938;8.488;2022-08-21T00:39:42;100605.44;;;16.62;100.00
4392;BME280;2210;51.938;8.488;2022-08-21T00:43:42;100609.91;;;16.68;100.00
4392;BME280;2210;51.938;8.488;2022-08-21T00:47:43;100613.00;;;16.77;100.00
4392;BME280;2210;51.938;8.488;2022-08-21T00:51:48;100603.50;;;16.62;100.00
4392;BME280;2210;51.938;8.488;2022-08-21T00:55:49;100608.47;;;16.50;100.00
4392;BME280;2210;51.938;8.488;2022-08-21T00:59:54;100605.97;;;16.59;100.00
4392;BME280;2210;51.938;8.488;2022-08-21T01:03:55;100602.63;;;16.46;100.00
4392;BME280;2210;51.938;8.488;2022-08-21T01:07:56;100607.63;;;16.39;100.00
4392;BME280;2210;51.938;8.488;2022-08-21T01:11:59;100602.91;;;16.50;100.00
4392;BME280;2210;51.938;8.488;2022-08-21T01:16:00;100600.41;;;16.48;100.00
4392;BME280;2210;51.938;8.488;2022-08-21T01:20:06;100606.50;;;16.35;100.00
4392;BME280;2210;51.938;8.488;2022-08-21T01:24:07;100601.50;;;16.42;100.00
4392;BME280;2210;51.938;8.488;2022-08-21T01:28:14;100600.28;;;16.07;100.00
4392;BME280;2210;51.938;8.488;2022-08-21T01:32:16;100595.06;;;16.21;100.00
4392;BME280;2210;51.938;8.488;2022-08-21T01:36:17;100591.75;;;16.29;100.00
4392;BME280;2210;51.938;8.488;2022-08-21T01:40:18;100590.91;;;16.29;100.00
4392;BME280;2210;51.938;8.488;2022-08-21T01:44:22;100597.03;;;16.41;100.00
4392;BME280;2210;51.938;8.488;2022-08-21T01:48:23;100598.16;;;16.45;100.00
4392;BME280;2210;51.938;8.488;2022-08-21T01:52:23;100592.63;;;16.50;100.00
4392;BME280;2210;51.938;8.488;2022-08-21T01:56:24;100594.84;;;16.59;100.00
4392;BME280;2210;51.938;8.488;2022-08-21T02:00:25;100589.28;;;16.59;100.00
4392;BME280;2210;51.938;8.488;2022-08-21T02:04:25;100596.28;;;16.72;100.00
4392;BME280;2210;51.938;8.488;2022-08-21T02:08:27;100599.59;;;16.58;100.00
4392;BME280;2210;51.938;8.488;2022-08-21T02:12:28;100598.50;;;16.64;100.00
4392;BME280;2210;51.938;8.488;2022-08-21T02:16:28;100596.22;;;16.56;100.00
4392;BME280;2210;51.938;8.488;2022-08-21T02:20:41;100597.09;;;16.67;100.00
4392;BME280;2210;51.938;8.488;2022-08-21T02:24:41;100587.09;;;16.66;100.00
4392;BME280;2210;51.938;8.488;2022-08-21T02:28:42;100594.84;;;16.59;100.00
4392;BME280;2210;51.938;8.488;2022-08-21T02:32:42;100582.06;;;16.58;100.00
4392;BME280;2210;51.938;8.488;2022-08-21T02:36:43;100584.28;;;16.61;100.00
4392;BME280;2210;51.938;8.488;2022-08-21T02:40:46;100569.25;;;16.57;100.00
4392;BME280;2210;51.938;8.488;2022-08-21T02:44:46;100575.38;;;16.54;100.00
4392;BME280;2210;51.938;8.488;2022-08-21T02:48:47;100580.94;;;16.54;100.00
4392;BME280;2210;51.938;8.488;2022-08-21T02:52:48;100582.31;;;16.56;100.00
4392;BME280;2210;51.938;8.488;2022-08-21T02:56:49;100582.63;;;16.49;100.00
4392;BME280;2210;51.938;8.488;2022-08-21T03:00:50;100578.69;;;16.45;100.00
4392;BME280;2210;51.938;8.488;2022-08-21T03:04:51;100572.03;;;16.51;100.00
4392;BME280;2210;51.938;8.488;2022-08-21T03:08:51;100573.13;;;16.50;100.00
4392;BME280;2210;51.938;8.488;2022-08-21T03:12:51;100576.41;;;16.16;100.00
4392;BME280;2210;51.938;8.488;2022-08-21T03:16:51;100576.69;;;16.30;100.00
4392;BME280;2210;51.938;8.488;2022-08-21T03:20:52;100573.06;;;16.25;100.00
4392;BME280;2210;51.938;8.488;2022-08-21T03:24:52;100572.00;;;16.31;100.00
4392;BME280;2210;51.938;8.488;2022-08-21T03:28:53;100581.75;;;16.33;100.00
4392;BME280;2210;51.938;8.488;2022-08-21T03:32:53;100581.44;;;16.25;100.00
4392;BME280;2210;51.938;8.488;2022-08-21T03:36:54;100572.22;;;16.19;100.00
4392;BME280;2210;51.938;8.488;2022-08-21T03:40:54;100570.25;;;16.09;100.00
4392;BME280;2210;51.938;8.488;2022-08-21T03:44:54;100577.78;;;16.14;100.00
4392;BME280;2210;51.938;8.488;2022-08-21T03:48:54;100575.81;;;16.09;100.00
4392;BME280;2210;51.938;8.488;2022-08-21T03:52:55;100583.13;;;16.31;100.00
4392;BME280;2210;51.938;8.488;2022-08-21T03:56:56;100584.78;;;16.37;100.00
4392;BME280;2210;51.938;8.488;2022-08-21T04:00:57;100587.00;;;16.30;100.00
4392;BME280;2210;51.938;8.488;2022-08-21T04:04:58;100596.47;;;16.24;100.00
4392;BME280;2210;51.938;8.488;2022-08-21T04:08:58;100598.09;;;16.19;100.00
4392;BME280;2210;51.938;8.488;2022-08-21T04:12:58;100593.09;;;16.16;100.00
4392;BME280;2210;51.938;8.488;2022-08-21T04:16:59;100609.78;;;16.16;100.00
4392;BME280;2210;51.938;8.488;2022-08-21T04:20:59;100606.94;;;16.01;100.00
4392;BME280;2210;51.938;8.488;2022-08-21T04:25:01;100608.66;;;16.12;100.00
4392;BME280;2210;51.938;8.488;2022-08-21T04:29:03;100613.13;;;16.18;100.00
4392;BME280;2210;51.938;8.488;2022-08-21T04:33:05;100621.19;;;16.15;100.00
4392;BME280;2210;51.938;8.488;2022-08-21T04:37:05;100616.97;;;16.07;100.00
4392;BME280;2210;51.938;8.488;2022-08-21T04:41:05;100621.63;;;15.86;100.00
4392;BME280;2210;51.938;8.488;2022-08-21T04:45:06;100633.88;;;15.90;100.00
4392;BME280;2210;51.938;8.488;2022-08-21T04:49:06;100630.81;;;15.92;100.00
4392;BME280;2210;51.938;8.488;2022-08-21T04:53:11;100633.06;;;15.95;100.00
4392;BME280;2210;51.938;8.488;2022-08-21T04:57:14;100634.16;;;15.94;100.00
4392;BME280;2210;51.938;8.488;2022-08-21T05:01:19;100631.34;;;15.83;100.00
4392;BME280;2210;51.938;8.488;2022-08-21T05:05:21;100636.25;;;15.71;100.00
4392;BME280;2210;51.938;8.488;2022-08-21T05:09:21;100642.09;;;15.70;100.00
4392;BME280;2210;51.938;8.488;2022-08-21T05:13:23;100645.09;;;15.68;100.00
4392;BME280;2210;51.938;8.488;2022-08-21T05:17:23;100642.31;;;15.63;100.00
4392;BME280;2210;51.938;8.488;2022-08-21T05:21:24;100643.13;;;15.63;100.00
4392;BME280;2210;51.938;8.488;2022-08-21T05:25:24;100645.44;;;15.77;100.00
4392;BME280;2210;51.938;8.488;2022-08-21T05:29:25;100646.28;;;15.72;100.00
4392;BME280;2210;51.938;8.488;2022-08-21T05:33:26;100644.34;;;15.78;100.00
4392;BME280;2210;51.938;8.488;2022-08-21T05:37:26;100644.97;;;15.85;100.00
4392;BME280;2210;51.938;8.488;2022-08-21T05:41:27;100648.63;;;15.96;100.00
4392;BME280;2210;51.938;8.488;2022-08-21T05:45:32;100651.19;;;16.08;100.00
4392;BME280;2210;51.938;8.488;2022-08-21T05:49:32;100651.84;;;16.25;100.00
4392;BME280;2210;51.938;8.488;2022-08-21T05:53:33;100647.44;;;16.45;100.00
4392;BME280;2210;51.938;8.488;2022-08-21T05:57:33;100639.38;;;16.48;100.00
4392;BME280;2210;51.938;8.488;2022-08-21T06:01:33;100647.72;;;16.48;100.00
4392;BME280;2210;51.938;8.488;2022-08-21T06:05:34;100641.31;;;16.53;100.00
4392;BME280;2210;51.938;8.488;2022-08-21T06:09:34;100649.72;;;16.74;100.00
4392;BME280;2210;51.938;8.488;2022-08-21T06:13:35;100642.53;;;16.93;100.00
4392;BME280;2210;51.938;8.488;2022-08-21T06:17:35;100647.56;;;17.22;100.00
4392;BME280;2210;51.938;8.488;2022-08-21T06:21:36;100641.69;;;17.24;100.00
4392;BME280;2210;51.938;8.488;2022-08-21T06:25:36;100645.56;;;17.48;100.00
4392;BME280;2210;51.938;8.488;2022-08-21T06:29:36;100644.41;;;17.75;100.00
4392;BME280;2210;51.938;8.488;2022-08-21T06:33:37;100640.50;;;17.86;100.00
4392;BME280;2210;51.938;8.488;2022-08-21T06:37:38;100652.47;;;17.82;100.00
4392;BME280;2210;51.938;8.488;2022-08-21T06:41:39;100647.72;;;17.98;100.00
4392;BME280;2210;51.938;8.488;2022-08-21T06:45:39;100643.81;;;17.89;100.00
4392;BME280;2210;51.938;8.488;2022-08-21T06:49:39;100641.88;;;17.94;100.00
4392;BME280;2210;51.938;8.488;2022-08-21T06:53:40;100642.56;;;18.31;100.00
4392;BME280;2210;51.938;8.488;2022-08-21T06:57:40;100634.22;;;18.70;100.00
4392;BME280;2210;51.938;8.488;2022-08-21T07:01:40;100633.63;;;18.79;100.00
4392;BME280;2210;51.938;8.488;2022-08-21T07:05:41;100639.16;;;18.89;100.00
4392;BME280;2210;51.938;8.488;2022-08-21T07:09:41;100629.38;;;18.86;100.00
4392;BME280;2210;51.938;8.488;2022-08-21T07:13:41;100629.91;;;18.94;100.00
4392;BME280;2210;51.938;8.488;2022-08-21T07:17:41;100629.97;;;19.18;100.00
4392;BME280;2210;51.938;8.488;2022-08-21T07:21:42;100632.34;;;19.35;99.86
4392;BME280;2210;51.938;8.488;2022-08-21T07:25:42;100628.00;;;19.24;100.00
4392;BME280;2210;51.938;8.488;2022-08-21T07:29:43;100625.13;;;19.29;100.00
4392;BME280;2210;51.938;8.488;2022-08-21T07:33:43;100624.13;;;19.73;99.82
4392;BME280;2210;51.938;8.488;2022-08-21T07:37:44;100625.09;;;19.63;99.11
4392;BME280;2210;51.938;8.488;2022-08-21T07:41:44;100613.75;;;19.74;98.21
4392;BME280;2210;51.938;8.488;2022-08-21T07:45:45;100616.19;;;19.85;96.52
4392;BME280;2210;51.938;8.488;2022-08-21T07:49:45;100620.81;;;20.19;94.65
4392;BME280;2210;51.938;8.488;2022-08-21T07:53:51;100613.03;;;20.54;92.04
4392;BME280;2210;51.938;8.488;2022-08-21T07:57:51;100616.72;;;20.74;90.25
4392;BME280;2210;51.938;8.488;2022-08-21T08:01:52;100613.19;;;20.63;89.94
4392;BME280;2210;51.938;8.488;2022-08-21T08:05:52;100611.69;;;20.71;87.99
4392;BME280;2210;51.938;8.488;2022-08-21T08:09:52;100606.38;;;20.88;87.46
4392;BME280;2210;51.938;8.488;2022-08-21T08:13:53;100608.59;;;21.25;85.26
4392;BME280;2210;51.938;8.488;2022-08-21T08:17:55;100614.19;;;21.25;83.71
4392;BME280;2210;51.938;8.488;2022-08-21T08:21:55;100611.03;;;21.12;81.79
4392;BME280;2210;51.938;8.488;2022-08-21T08:25:56;100603.47;;;21.13;80.96
4392;BME280;2210;51.938;8.488;2022-08-21T08:29:57;100606.28;;;21.27;79.76
4392;BME280;2210;51.938;8.488;2022-08-21T08:33:57;100605.25;;;21.55;77.72
4392;BME280;2210;51.938;8.488;2022-08-21T08:37:58;100596.34;;;21.48;76.83
4392;BME280;2210;51.938;8.488;2022-08-21T08:42:04;100589.47;;;21.60;77.51
4392;BME280;2210;51.938;8.488;2022-08-21T08:46:13;100588.81;;;21.77;72.29
4392;BME280;2210;51.938;8.488;2022-08-21T08:50:38;100584.56;;;21.79;74.35
4392;BME280;2210;51.938;8.488;2022-08-21T08:55:02;100582.59;;;21.94;71.77
4392;BME280;2210;51.938;8.488;2022-08-21T08:59:27;100585.28;;;21.99;71.50
4392;BME280;2210;51.938;8.488;2022-08-21T09:17:57;100569.84;;;22.38;67.30
4392;BME280;2210;51.938;8.488;2022-08-21T09:26:27;100555.94;;;22.55;62.18
4392;BME280;2210;51.938;8.488;2022-08-21T09:30:44;100563.00;;;22.67;62.80
4392;BME280;2210;51.938;8.488;2022-08-21T09:35:13;100553.97;;;22.79;62.22
4392;BME280;2210;51.938;8.488;2022-08-21T09:39:39;100557.34;;;22.89;61.82
4392;BME280;2210;51.938;8.488;2022-08-21T09:43:54;100550.09;;;22.88;58.45
4392;BME280;2210;51.938;8.488;2022-08-21T09:48:15;100550.78;;;22.94;57.84
4392;BME280;2210;51.938;8.488;2022-08-21T09:52:23;100541.63;;;23.11;59.38
4392;BME280;2210;51.938;8.488;2022-08-21T09:56:31;100543.84;;;22.92;60.36
4392;BME280;2210;51.938;8.488;2022-08-21T10:01:04;100532.03;;;23.12;61.25
4392;BME280;2210;51.938;8.488;2022-08-21T10:05:25;100530.91;;;23.53;59.87
4392;BME280;2210;51.938;8.488;2022-08-21T10:09:29;100521.91;;;23.83;58.67
4392;BME280;2210;51.938;8.488;2022-08-21T10:22:35;100520.38;;;23.68;55.52
4392;BME280;2210;51.938;8.488;2022-08-21T10:27:02;100515.69;;;23.46;55.90
4392;BME280;2210;51.938;8.488;2022-08-21T10:31:30;100508.22;;;23.90;55.57
4392;BME280;2210;51.938;8.488;2022-08-21T10:58:25;100499.28;;;23.97;53.97
4392;BME280;2210;51.938;8.488;2022-08-21T11:07:25;100495.00;;;24.26;53.05
4392;BME280;2210;51.938;8.488;2022-08-21T11:11:58;100482.06;;;24.33;52.78
4392;BME280;2210;51.938;8.488;2022-08-21T11:16:30;100482.38;;;24.49;52.55
4392;BME280;2210;51.938;8.488;2022-08-21T11:25:34;100483.19;;;24.94;49.20
4392;BME280;2210;51.938;8.488;2022-08-21T11:29:39;100474.59;;;24.81;50.63
4392;BME280;2210;51.938;8.488;2022-08-21T11:46:28;100484.06;;;24.15;51.09
4392;BME280;2210;51.938;8.488;2022-08-21T11:50:31;100484.53;;;24.35;50.21
4392;BME280;2210;51.938;8.488;2022-08-21T11:59:02;100481.75;;;24.26;50.75
4392;BME280;2210;51.938;8.488;2022-08-21T12:03:15;100477.94;;;24.39;51.08
4392;BME280;2210;51.938;8.488;2022-08-21T12:07:39;100477.75;;;24.36;51.06
4392;BME280;2210;51.938;8.488;2022-08-21T12:12:10;100474.75;;;24.50;50.89
4392;BME280;2210;51.938;8.488;2022-08-21T12:16:39;100474.91;;;24.80;49.48
4392;BME280;2210;51.938;8.488;2022-08-21T12:20:43;100464.31;;;24.41;49.37
4392;BME280;2210;51.938;8.488;2022-08-21T12:24:45;100469.94;;;24.59;49.71
4392;BME280;2210;51.938;8.488;2022-08-21T12:28:48;100466.59;;;24.92;48.86
4392;BME280;2210;51.938;8.488;2022-08-21T12:33:04;100473.28;;;25.17;48.58
4392;BME280;2210;51.938;8.488;2022-08-21T12:37:25;100464.03;;;25.08;45.39
4392;BME280;2210;51.938;8.488;2022-08-21T12:41:42;100462.97;;;24.83;44.93
4392;BME280;2210;51.938;8.488;2022-08-21T12:50:39;100454.69;;;25.25;46.08
4392;BME280;2210;51.938;8.488;2022-08-21T12:54:46;100461.44;;;25.41;44.72
4392;BME280;2210;51.938;8.488;2022-08-21T12:59:04;100455.44;;;25.43;43.94
4392;BME280;2210;51.938;8.488;2022-08-21T13:03:16;100457.38;;;25.51;42.49
4392;BME280;2210;51.938;8.488;2022-08-21T13:07:37;100457.47;;;25.34;41.71
4392;BME280;2210;51.938;8.488;2022-08-21T13:11:47;100456.13;;;25.40;44.09
4392;BME280;2210;51.938;8.488;2022-08-21T13:15:49;100447.59;;;25.49;45.88
4392;BME280;2210;51.938;8.488;2022-08-21T13:20:09;100448.13;;;25.42;44.10
4392;BME280;2210;51.938;8.488;2022-08-21T13:24:28;100448.50;;;25.32;43.18
4392;BME280;2210;51.938;8.488;2022-08-21T13:28:35;100448.41;;;25.19;43.75
4392;BME280;2210;51.938;8.488;2022-08-21T13:32:46;100440.72;;;25.29;43.52
4392;BME280;2210;51.938;8.488;2022-08-21T13:37:02;100444.06;;;25.22;44.31
4392;BME280;2210;51.938;8.488;2022-08-21T13:41:35;100443.19;;;25.39;44.34
4392;BME280;2210;51.938;8.488;2022-08-21T13:45:36;100443.06;;;25.35;43.49
4392;BME280;2210;51.938;8.488;2022-08-21T13:49:43;100452.00;;;25.29;45.00
4392;BME280;2210;51.938;8.488;2022-08-21T13:53:52;100452.63;;;25.43;44.71
4392;BME280;2210;51.938;8.488;2022-08-21T13:58:04;100453.06;;;25.54;45.77
4392;BME280;2210;51.938;8.488;2022-08-21T14:02:18;100450.94;;;25.42;43.55
4392;BME280;2210;51.938;8.488;2022-08-21T14:06:25;100449.25;;;25.11;43.82
4392;BME280;2210;51.938;8.488;2022-08-21T14:10:26;100443.88;;;24.88;44.01
4392;BME280;2210;51.938;8.488;2022-08-21T14:14:32;100446.91;;;24.74;45.04
4392;BME280;2210;51.938;8.488;2022-08-21T14:18:52;100446.56;;;24.76;45.49
4392;BME280;2210;51.938;8.488;2022-08-21T14:22:54;100442.88;;;24.84;47.00
4392;BME280;2210;51.938;8.488;2022-08-21T14:27:03;100441.91;;;24.80;46.70
4392;BME280;2210;51.938;8.488;2022-08-21T14:31:19;100447.38;;;24.85;47.02
4392;BME280;2210;51.938;8.488;2022-08-21T14:35:23;100443.63;;;25.02;45.57
4392;BME280;2210;51.938;8.488;2022-08-21T14:39:23;100440.31;;;25.09;46.26
4392;BME280;2210;51.938;8.488;2022-08-21T14:43:26;100441.38;;;25.25;45.71
4392;BME280;2210;51.938;8.488;2022-08-21T14:47:27;100439.44;;;25.17;43.07
4392;BME280;2210;51.938;8.488;2022-08-21T14:51:28;100451.25;;;25.11;44.46
4392;BME280;2210;51.938;8.488;2022-08-21T14:55:32;100455.03;;;25.23;43.02
4392;BME280;2210;51.938;8.488;2022-08-21T15:04:02;100455.31;;;25.31;42.76
4392;BME280;2210;51.938;8.488;2022-08-21T15:08:03;100455.44;;;24.96;42.65
4392;BME280;2210;51.938;8.488;2022-08-21T15:12:05;100453.47;;;24.87;44.10
4392;BME280;2210;51.938;8.488;2022-08-21T15:16:08;100450.81;;;24.91;44.11
4392;BME280;2210;51.938;8.488;2022-08-21T15:20:10;100451.03;;;24.77;45.71
4392;BME280;2210;51.938;8.488;2022-08-21T15:24:10;100447.88;;;24.79;46.99
4392;BME280;2210;51.938;8.488;2022-08-21T15:28:12;100443.88;;;24.88;48.77
4392;BME280;2210;51.938;8.488;2022-08-21T15:32:19;100448.16;;;24.95;44.99
4392;BME280;2210;51.938;8.488;2022-08-21T15:36:20;100447.84;;;24.87;44.98
4392;BME280;2210;51.938;8.488;2022-08-21T15:40:20;100449.72;;;24.74;46.20
4392;BME280;2210;51.938;8.488;2022-08-21T15:44:21;100440.63;;;24.51;46.59
4392;BME280;2210;51.938;8.488;2022-08-21T15:48:21;100436.31;;;24.45;46.72
4392;BME280;2210;51.938;8.488;2022-08-21T15:52:22;100435.16;;;24.46;46.35
4392;BME280;2210;51.938;8.488;2022-08-21T15:56:25;100433.66;;;24.49;46.77
4392;BME280;2210;51.938;8.488;2022-08-21T16:00:32;100431.16;;;24.56;45.45
4392;BME280;2210;51.938;8.488;2022-08-21T16:04:33;100439.28;;;24.66;44.37
4392;BME280;2210;51.938;8.488;2022-08-21T16:08:34;100431.66;;;24.67;43.95
4392;BME280;2210;51.938;8.488;2022-08-21T16:12:37;100438.31;;;24.62;44.46
4392;BME280;2210;51.938;8.488;2022-08-21T16:16:38;100430.66;;;24.63;44.89
4392;BME280;2210;51.938;8.488;2022-08-21T16:20:38;100430.97;;;24.52;45.32
4392;BME280;2210;51.938;8.488;2022-08-21T16:24:39;100434.16;;;24.16;47.38
4392;BME280;2210;51.938;8.488;2022-08-21T16:28:41;100424.88;;;24.24;47.00
4392;BME280;2210;51.938;8.488;2022-08-21T16:32:43;100431.84;;;24.27;46.30
4392;BME280;2210;51.938;8.488;2022-08-21T16:36:43;100428.38;;;24.21;47.42
4392;BME280;2210;51.938;8.488;2022-08-21T16:40:45;100435.50;;;24.10;47.81
4392;BME280;2210;51.938;8.488;2022-08-21T16:44:45;100435.03;;;24.16;46.19
4392;BME280;2210;51.938;8.488;2022-08-21T16:48:46;100432.69;;;24.10;47.92
4392;BME280;2210;51.938;8.488;2022-08-21T16:52:46;100427.72;;;23.98;48.09
4392;BME280;2210;51.938;8.488;2022-08-21T16:56:46;100435.16;;;23.94;47.89
4392;BME280;2210;51.938;8.488;2022-08-21T17:00:47;100437.81;;;23.90;47.65
4392;BME280;2210;51.938;8.488;2022-08-21T17:04:48;100434.69;;;23.92;48.17
4392;BME280;2210;51.938;8.488;2022-08-21T17:08:49;100440.63;;;23.90;47.97
4392;BME280;2210;51.938;8.488;2022-08-21T17:12:55;100434.47;;;23.88;48.06
4392;BME280;2210;51.938;8.488;2022-08-21T17:16:56;100436.66;;;23.91;49.40
4392;BME280;2210;51.938;8.488;2022-08-21T17:20:56;100429.53;;;23.85;48.72
4392;BME280;2210;51.938;8.488;2022-08-21T17:24:56;100424.00;;;23.71;50.10
4392;BME280;2210;51.938;8.488;2022-08-21T17:28:57;100435.75;;;23.64;50.50
4392;BME280;2210;51.938;8.488;2022-08-21T17:32:59;100428.81;;;23.62;50.75
4392;BME280;2210;51.938;8.488;2022-08-21T17:36:59;100425.63;;;23.46;50.52
4392;BME280;2210;51.938;8.488;2022-08-21T17:41:00;100430.59;;;23.49;52.02
4392;BME280;2210;51.938;8.488;2022-08-21T17:45:01;100430.63;;;23.57;51.26
4392;BME280;2210;51.938;8.488;2022-08-21T17:49:02;100434.72;;;23.43;52.29
4392;BME280;2210;51.938;8.488;2022-08-21T17:53:03;100425.75;;;23.32;51.71
4392;BME280;2210;51.938;8.488;2022-08-21T17:57:04;100441.47;;;23.24;51.98
4392;BME280;2210;51.938;8.488;2022-08-21T18:01:04;100446.56;;;23.22;52.01
4392;BME280;2210;51.938;8.488;2022-08-21T18:05:07;100441.22;;;23.12;52.46
4392;BME280;2210;51.938;8.488;2022-08-21T18:09:09;100444.13;;;22.98;52.17
4392;BME280;2210;51.938;8.488;2022-08-21T18:13:11;100440.13;;;22.90;53.50
4392;BME280;2210;51.938;8.488;2022-08-21T18:17:16;100440.41;;;22.80;54.21
4392;BME280;2210;51.938;8.488;2022-08-21T18:21:18;100445.66;;;22.72;53.04
4392;BME280;2210;51.938;8.488;2022-08-21T18:25:18;100446.19;;;22.52;55.55
4392;BME280;2210;51.938;8.488;2022-08-21T18:29:19;100448.94;;;22.43;58.11
4392;BME280;2210;51.938;8.488;2022-08-21T18:33:21;100456.06;;;22.27;59.03
4392;BME280;2210;51.938;8.488;2022-08-21T18:37:22;100451.00;;;22.15;55.66
4392;BME280;2210;51.938;8.488;2022-08-21T18:41:22;100456.94;;;22.13;57.33
4392;BME280;2210;51.938;8.488;2022-08-21T18:45:23;100463.25;;;21.96;57.39
4392;BME280;2210;51.938;8.488;2022-08-21T18:49:24;100470.03;;;21.81;58.63
4392;BME280;2210;51.938;8.488;2022-08-21T18:53:24;100470.25;;;21.71;59.28
4392;BME280;2210;51.938;8.488;2022-08-21T18:57:27;100473.69;;;21.54;60.28
4392;BME280;2210;51.938;8.488;2022-08-21T19:01:28;100480.31;;;21.44;61.15
4392;BME280;2210;51.938;8.488;2022-08-21T19:05:29;100479.50;;;21.30;63.71
4392;BME280;2210;51.938;8.488;2022-08-21T19:09:29;100484.34;;;21.24;64.44
4392;BME280;2210;51.938;8.488;2022-08-21T19:13:30;100488.19;;;21.14;64.70
4392;BME280;2210;51.938;8.488;2022-08-21T19:17:30;100493.38;;;21.07;64.97
4392;BME280;2210;51.938;8.488;2022-08-21T19:21:31;100497.41;;;21.01;65.65
4392;BME280;2210;51.938;8.488;2022-08-21T19:25:32;100495.00;;;20.94;65.89
4392;BME280;2210;51.938;8.488;2022-08-21T19:29:33;100492.72;;;20.82;67.88
4392;BME280;2210;51.938;8.488;2022-08-21T19:33:37;100493.50;;;20.69;67.84
4392;BME280;2210;51.938;8.488;2022-08-21T19:37:38;100496.06;;;20.65;68.89
4392;BME280;2210;51.938;8.488;2022-08-21T19:41:42;100497.16;;;20.50;69.74
4392;BME280;2210;51.938;8.488;2022-08-21T19:45:44;100490.25;;;20.43;69.69
4392;BME280;2210;51.938;8.488;2022-08-21T19:49:51;100504.13;;;20.34;71.35
4392;BME280;2210;51.938;8.488;2022-08-21T19:53:54;100499.53;;;20.24;72.48
4392;BME280;2210;51.938;8.488;2022-08-21T19:57:54;100495.97;;;20.18;73.00
4392;BME280;2210;51.938;8.488;2022-08-21T20:01:55;100493.00;;;20.10;71.71
4392;BME280;2210;51.938;8.488;2022-08-21T20:05:55;100487.34;;;19.96;73.21
4392;BME280;2210;51.938;8.488;2022-08-21T20:09:55;100498.06;;;19.88;74.18
4392;BME280;2210;51.938;8.488;2022-08-21T20:13:56;100499.31;;;19.77;74.43
4392;BME280;2210;51.938;8.488;2022-08-21T20:17:57;100490.69;;;19.74;74.90
4392;BME280;2210;51.938;8.488;2022-08-21T20:21:57;100493.19;;;19.75;74.42
4392;BME280;2210;51.938;8.488;2022-08-21T20:25:58;100489.34;;;19.71;74.78
4392;BME280;2210;51.938;8.488;2022-08-21T20:29:59;100489.41;;;19.66;75.75
4392;BME280;2210;51.938;8.488;2022-08-21T20:33:59;100485.59;;;19.57;76.15
4392;BME280;2210;51.938;8.488;2022-08-21T20:38:00;100490.13;;;19.52;76.25
4392;BME280;2210;51.938;8.488;2022-08-21T20:42:00;100480.72;;;19.43;77.14
4392;BME280;2210;51.938;8.488;2022-08-21T20:46:02;100484.78;;;19.32;78.37
4392;BME280;2210;51.938;8.488;2022-08-21T20:50:06;100484.28;;;19.25;79.05
4392;BME280;2210;51.938;8.488;2022-08-21T20:54:18;100489.41;;;19.17;79.46
4392;BME280;2210;51.938;8.488;2022-08-21T20:58:33;100493.31;;;19.16;78.56
4392;BME280;2210;51.938;8.488;2022-08-21T21:02:52;100496.28;;;19.01;78.87
4392;BME280;2210;51.938;8.488;2022-08-21T21:06:54;100489.03;;;19.00;79.02
4392;BME280;2210;51.938;8.488;2022-08-21T21:11:03;100498.78;;;19.02;79.01
4392;BME280;2210;51.938;8.488;2022-08-21T21:19:34;100490.22;;;18.94;78.79
4392;BME280;2210;51.938;8.488;2022-08-21T21:23:41;100497.22;;;18.91;79.75
4392;BME280;2210;51.938;8.488;2022-08-21T21:27:52;100498.72;;;18.78;78.83
4392;BME280;2210;51.938;8.488;2022-08-21T21:31:54;100501.31;;;18.69;80.01
4392;BME280;2210;51.938;8.488;2022-08-21T21:36:18;100494.94;;;18.64;81.77
4392;BME280;2210;51.938;8.488;2022-08-21T21:40:43;100501.13;;;18.56;81.22
4392;BME280;2210;51.938;8.488;2022-08-21T22:07:09;100509.53;;;18.16;82.82
4392;BME280;2210;51.938;8.488;2022-08-21T22:11:27;100511.47;;;18.20;83.13
4392;BME280;2210;51.938;8.488;2022-08-21T22:15:29;100523.25;;;18.07;81.84
4392;BME280;2210;51.938;8.488;2022-08-21T22:19:36;100521.06;;;17.99;82.41
4392;BME280;2210;51.938;8.488;2022-08-21T22:23:46;100527.78;;;17.93;82.72
4392;BME280;2210;51.938;8.488;2022-08-21T22:27:50;100530.06;;;17.80;83.23
4392;BME280;2210;51.938;8.488;2022-08-21T22:32:06;100521.06;;;17.99;82.41
4392;BME280;2210;51.938;8.488;2022-08-21T22:36:17;100514.97;;;17.92;83.29
4392;BME280;2210;51.938;8.488;2022-08-21T22:44:26;100519.69;;;17.86;84.81
4392;BME280;2210;51.938;8.488;2022-08-21T22:48:30;100521.09;;;17.83;85.22
4392;BME280;2210;51.938;8.488;2022-08-21T22:52:35;100522.56;;;17.76;86.09
4392;BME280;2210;51.938;8.488;2022-08-21T22:56:39;100537.91;;;17.68;86.38
4392;BME280;2210;51.938;8.488;2022-08-21T23:09:31;100524.44;;;17.15;88.98
4392;BME280;2210;51.938;8.488;2022-08-21T23:13:41;100528.03;;;17.31;87.97
4392;BME280;2210;51.938;8.488;2022-08-21T23:17:59;100528.56;;;17.33;88.31
4392;BME280;2210;51.938;8.488;2022-08-21T23:30:48;100525.00;;;16.96;90.53
4392;BME280;2210;51.938;8.488;2022-08-21T23:39:20;100531.69;;;17.00;90.83
4392;BME280;2210;51.938;8.488;2022-08-21T23:43:49;100536.72;;;16.98;91.42
4392;BME280;2210;51.938;8.488;2022-08-21T23:56:57;100536.69;;;16.83;92.89
